KSRB  Upper Cumberland Regional Airport

Add Bookmark

Sparta, Tennessee, United States

Status Useage
Operational Public
Latitude Longitude
36° 3' 24" N 85° 31' 48" W
36.056739 -85.530108
Local (DST -5) UTC (GMT -6)
Jan 25, 2015 02:14 Jan 25, 2015 20:14
Sunrise-Sunset Local UTC
Begin Civil Twilight 06:18 12:18
Sunrise 06:45 12:45
Sunset 05:03 23:03
End Civil Twilight 05:30 23:30

Current Weather

METAR Observed VFR
KSRB 251955Z AUTO 20008KT 10SM SCT090 11/02 A2964 Sun, Jan 25, 2015 @ 19:55 UTC
(19 Minutes ago)
Visual Flight Rules
Wind Visibility Clouds Conditions
200° at 8 knots (9 mph) 10 statute miles
  • Scattered at 9,000' AGL
  • No significant weather
Temperatures Readings Precipitation
Current Temp 11°C (52°F)
Dewpoint 2°C (36°F)
Humidity 54%
Altimeter 29.64"Hg
Sea Level Pressure 1004mb
None Recorded

Additional weather within a 50nm radius of KSRB

Map ICAO Location
KCSV 22.5nm E (106°)
KRNC 26.3nm S (215°)
KMQY 48.1nm W (267°)

24 Hour Weather History

Loading
-

24 Hour Weather Graphs

Loading
-

CheckWX.com is intended as a tool to help pilots better visualize weather data. It is not intended as a substitute for an official weather briefing obtained from a Flight Service Station. CheckWX.com does not meet the FAA requirements for an official pre-flight weather briefing. Therefore, it's important that pilots still call and obtain an official FSS pre-flight weather briefing.